AAL764 LROP-KJFK
Flight info
| Callsign | AAL764 |
|---|---|
| Flight time | 8h 54m |
| Altitude | 34000 |
| Route | SOKRU1K/08L SOKRU DCT BUDOP DCT PATAK DCT LALES DCT VARIK DCT KATCE DCT RAVLO Y70 OTBED L60 PENIL M144 BAGSO DCT DOGAL/M080F340 NATA ALLRY/N0459F340 N476B TOPPS DCT ENE PARCH4 |
| Aircraft | B789/H-SDE1E2E3FGHIJ2J3J4J5M1RWXY/LB1D1 |
Departure
| Time | 2026-04-30 09:06 |
|---|---|
| Airport | Bucharest Henri Coandă International Airport (LROP) |
Arrival
| Time | 2026-04-30 18:00 |
|---|---|
| Airport | John F. Kennedy International Airport (KJFK) |
| Time | Latitude | Longitude | Altitude | Speed | Heading |
|---|---|---|---|---|---|
| 2026-04-30 08:44 | 44.57124 | 26.07945 | 324 ft | 0 kts | 174° |
| 2026-04-30 08:44 | 44.57123 | 26.07945 | 324 ft | 0 kts | 174° |
| 2026-04-30 08:50 | 44.57124 | 26.07945 | 324 ft | 0 kts | 174° |
| 2026-04-30 08:50 | 44.57123 | 26.07945 | 328 ft | 0 kts | 174° |
| 2026-04-30 08:58 | 44.57131 | 26.07944 | 328 ft | 4 kts | 174° |
| 2026-04-30 08:58 | 44.57157 | 26.07940 | 323 ft | 2 kts | 174° |
| 2026-04-30 08:58 | 44.57178 | 26.07933 | 323 ft | 4 kts | 136° |
| 2026-04-30 08:59 | 44.57189 | 26.07903 | 324 ft | 4 kts | 90° |
| 2026-04-30 08:59 | 44.57189 | 26.07896 | 324 ft | 4 kts | 84° |
| 2026-04-30 08:59 | 44.57190 | 26.07906 | 324 ft | 0 kts | 84° |
| 2026-04-30 09:01 | 44.57190 | 26.07908 | 324 ft | 2 kts | 84° |
| 2026-04-30 09:02 | 44.57199 | 26.08030 | 325 ft | 13 kts | 84° |
| 2026-04-30 09:02 | 44.57208 | 26.08151 | 324 ft | 11 kts | 83° |
| 2026-04-30 09:02 | 44.57216 | 26.08261 | 328 ft | 12 kts | 84° |
| 2026-04-30 09:03 | 44.57226 | 26.08397 | 325 ft | 16 kts | 83° |
| 2026-04-30 09:03 | 44.57260 | 26.08496 | 325 ft | 6 kts | 18° |
| 2026-04-30 09:03 | 44.57304 | 26.08493 | 325 ft | 9 kts | 355° |
| 2026-04-30 09:03 | 44.57382 | 26.08483 | 327 ft | 12 kts | 354° |
| 2026-04-30 09:04 | 44.57460 | 26.08472 | 324 ft | 10 kts | 354° |
| 2026-04-30 09:04 | 44.57525 | 26.08462 | 326 ft | 8 kts | 354° |
| 2026-04-30 09:04 | 44.57542 | 26.08460 | 324 ft | 0 kts | 354° |
| 2026-04-30 09:05 | 44.57545 | 26.08460 | 324 ft | 3 kts | 354° |
| 2026-04-30 09:05 | 44.57606 | 26.08452 | 324 ft | 15 kts | 356° |
| 2026-04-30 09:05 | 44.57671 | 26.08543 | 327 ft | 14 kts | 84° |
| 2026-04-30 09:05 | 44.57696 | 26.08879 | 325 ft | 62 kts | 84° |
| 2026-04-30 09:06 | 44.57762 | 26.09756 | 329 ft | 119 kts | 84° |
| 2026-04-30 09:06 | 44.57864 | 26.11167 | 414 ft | 159 kts | 83° |
| 2026-04-30 09:06 | 44.57970 | 26.12686 | 1263 ft | 160 kts | 80° |
| 2026-04-30 09:06 | 44.58100 | 26.14233 | 2170 ft | 161 kts | 79° |
| 2026-04-30 09:07 | 44.58234 | 26.15892 | 2632 ft | 182 kts | 81° |
| 2026-04-30 09:07 | 44.58748 | 26.17561 | 3145 ft | 197 kts | 52° |
| 2026-04-30 09:07 | 44.59827 | 26.18710 | 4035 ft | 200 kts | 29° |
| 2026-04-30 09:07 | 44.61263 | 26.19164 | 4502 ft | 228 kts | 6° |
| 2026-04-30 09:08 | 44.62832 | 26.18452 | 5091 ft | 251 kts | 325° |
| 2026-04-30 09:08 | 44.63994 | 26.16548 | 5624 ft | 269 kts | 305° |
| 2026-04-30 09:08 | 44.64963 | 26.14232 | 6500 ft | 274 kts | 298° |
| 2026-04-30 09:08 | 44.65887 | 26.11864 | 7335 ft | 280 kts | 300° |
| 2026-04-30 09:09 | 44.66870 | 26.09554 | 8422 ft | 277 kts | 302° |
| 2026-04-30 09:09 | 44.67894 | 26.07232 | 9400 ft | 273 kts | 302° |
| 2026-04-30 09:09 | 44.68881 | 26.05040 | 10442 ft | 273 kts | 305° |
| 2026-04-30 09:09 | 44.70142 | 26.02833 | 10681 ft | 297 kts | 311° |
| 2026-04-30 09:10 | 44.71542 | 26.00566 | 11020 ft | 319 kts | 309° |
| 2026-04-30 09:10 | 44.72967 | 25.98005 | 11150 ft | 346 kts | 306° |
| 2026-04-30 09:10 | 44.74451 | 25.95194 | 11481 ft | 363 kts | 306° |
| 2026-04-30 09:10 | 44.75989 | 25.92370 | 12370 ft | 365 kts | 307° |
| 2026-04-30 09:11 | 44.77580 | 25.89549 | 13083 ft | 371 kts | 309° |
| 2026-04-30 09:11 | 44.79420 | 25.86946 | 13849 ft | 377 kts | 315° |
| 2026-04-30 09:11 | 44.81403 | 25.84474 | 14546 ft | 383 kts | 317° |
| 2026-04-30 09:11 | 44.83412 | 25.82095 | 15371 ft | 382 kts | 317° |
| 2026-04-30 09:12 | 44.85478 | 25.79711 | 16109 ft | 385 kts | 317° |
| 2026-04-30 09:12 | 44.87572 | 25.77348 | 16860 ft | 387 kts | 317° |
| 2026-04-30 09:12 | 44.89683 | 25.75010 | 17616 ft | 389 kts | 317° |
| 2026-04-30 09:12 | 44.91830 | 25.72670 | 18355 ft | 391 kts | 317° |
| 2026-04-30 09:13 | 44.94000 | 25.70342 | 19003 ft | 392 kts | 318° |
| 2026-04-30 09:13 | 44.96193 | 25.68022 | 19656 ft | 394 kts | 318° |
| 2026-04-30 09:13 | 44.98397 | 25.65721 | 20292 ft | 395 kts | 318° |
| 2026-04-30 09:13 | 45.00630 | 25.63405 | 20757 ft | 401 kts | 318° |
| 2026-04-30 09:14 | 45.02890 | 25.61070 | 21342 ft | 402 kts | 318° |
| 2026-04-30 09:14 | 45.05159 | 25.58749 | 21900 ft | 403 kts | 318° |
| 2026-04-30 09:14 | 45.07445 | 25.56428 | 22466 ft | 405 kts | 318° |
| 2026-04-30 09:14 | 45.09723 | 25.54123 | 22954 ft | 408 kts | 318° |
| 2026-04-30 09:15 | 45.12047 | 25.51788 | 23503 ft | 410 kts | 318° |
| 2026-04-30 09:15 | 45.14380 | 25.49462 | 24021 ft | 411 kts | 318° |
| 2026-04-30 09:15 | 45.16680 | 25.47052 | 24431 ft | 410 kts | 315° |
| 2026-04-30 09:15 | 45.18806 | 25.44404 | 24879 ft | 406 kts | 309° |
| 2026-04-30 09:16 | 45.20787 | 25.41551 | 25204 ft | 407 kts | 307° |
| 2026-04-30 09:16 | 45.22702 | 25.38591 | 25624 ft | 407 kts | 305° |
| 2026-04-30 09:16 | 45.24590 | 25.35590 | 26041 ft | 407 kts | 305° |
| 2026-04-30 09:16 | 45.26440 | 25.32544 | 26411 ft | 408 kts | 303° |
| 2026-04-30 09:17 | 45.28261 | 25.29446 | 26811 ft | 408 kts | 303° |
| 2026-04-30 09:17 | 45.30048 | 25.26355 | 27221 ft | 409 kts | 302° |
| 2026-04-30 09:17 | 45.31754 | 25.23125 | 27568 ft | 409 kts | 300° |
| 2026-04-30 09:17 | 45.33383 | 25.19845 | 28030 ft | 408 kts | 298° |
| 2026-04-30 09:18 | 45.35002 | 25.16515 | 28420 ft | 410 kts | 298° |
| 2026-04-30 09:18 | 45.36615 | 25.13165 | 28739 ft | 413 kts | 298° |
| 2026-04-30 09:18 | 45.38240 | 25.09780 | 29135 ft | 414 kts | 298° |
| 2026-04-30 09:18 | 45.39861 | 25.06386 | 29568 ft | 415 kts | 297° |
| 2026-04-30 09:19 | 45.41475 | 25.02940 | 29754 ft | 421 kts | 298° |
| 2026-04-30 09:19 | 45.43108 | 24.99466 | 30063 ft | 422 kts | 299° |
| 2026-04-30 09:19 | 45.44818 | 24.96054 | 30421 ft | 425 kts | 300° |
| 2026-04-30 09:19 | 45.46568 | 24.92640 | 30666 ft | 428 kts | 300° |
| 2026-04-30 09:20 | 45.47716 | 24.90347 | 30820 ft | 430 kts | 300° |
| 2026-04-30 09:20 | 45.49441 | 24.86837 | 31064 ft | 433 kts | 300° |
| 2026-04-30 09:20 | 45.52972 | 24.79711 | 31357 ft | 443 kts | 301° |
| 2026-04-30 09:21 | 45.54762 | 24.76119 | 31550 ft | 446 kts | 301° |
| 2026-04-30 09:21 | 45.56553 | 24.72492 | 31760 ft | 448 kts | 301° |
| 2026-04-30 09:21 | 45.58351 | 24.68836 | 31946 ft | 452 kts | 301° |
| 2026-04-30 09:21 | 45.60168 | 24.65160 | 32200 ft | 454 kts | 301° |
| 2026-04-30 09:22 | 45.61991 | 24.61470 | 32470 ft | 456 kts | 301° |
| 2026-04-30 09:22 | 45.63817 | 24.57755 | 32802 ft | 456 kts | 301° |
| 2026-04-30 09:22 | 45.65625 | 24.54073 | 33020 ft | 460 kts | 302° |
| 2026-04-30 09:22 | 45.67466 | 24.50325 | 33329 ft | 461 kts | 302° |
| 2026-04-30 09:23 | 45.69307 | 24.46572 | 33681 ft | 461 kts | 302° |
| 2026-04-30 09:23 | 45.71147 | 24.42814 | 34041 ft | 461 kts | 302° |
| 2026-04-30 09:23 | 45.72988 | 24.39046 | 34309 ft | 463 kts | 302° |
| 2026-04-30 09:23 | 45.74848 | 24.35234 | 34284 ft | 467 kts | 302° |
| 2026-04-30 09:24 | 45.78544 | 24.27655 | 34282 ft | 462 kts | 302° |
| 2026-04-30 09:24 | 45.82228 | 24.20069 | 34299 ft | 467 kts | 303° |
| 2026-04-30 09:25 | 45.85922 | 24.12453 | 34297 ft | 466 kts | 303° |
| 2026-04-30 09:25 | 45.89615 | 24.04810 | 34290 ft | 465 kts | 303° |
| 2026-04-30 09:26 | 45.93299 | 23.97169 | 34280 ft | 465 kts | 303° |
| 2026-04-30 09:26 | 45.96981 | 23.89509 | 34279 ft | 465 kts | 303° |
| 2026-04-30 09:27 | 46.00662 | 23.81831 | 34278 ft | 466 kts | 303° |
| 2026-04-30 09:27 | 46.04311 | 23.74201 | 34275 ft | 466 kts | 302° |
| 2026-04-30 09:28 | 46.07981 | 23.66503 | 34271 ft | 466 kts | 303° |
| 2026-04-30 09:28 | 46.11664 | 23.58758 | 34272 ft | 469 kts | 303° |
| 2026-04-30 09:29 | 46.15345 | 23.50997 | 34270 ft | 467 kts | 303° |
| 2026-04-30 09:29 | 46.19006 | 23.43255 | 34272 ft | 467 kts | 303° |
| 2026-04-30 09:30 | 46.22674 | 23.35476 | 34277 ft | 470 kts | 303° |
| 2026-04-30 09:30 | 46.26359 | 23.27640 | 34282 ft | 472 kts | 303° |
| 2026-04-30 09:31 | 46.30042 | 23.19787 | 34284 ft | 471 kts | 303° |
| 2026-04-30 09:31 | 46.33718 | 23.11926 | 34282 ft | 471 kts | 303° |
| 2026-04-30 09:32 | 46.37363 | 23.04110 | 34280 ft | 472 kts | 303° |
| 2026-04-30 09:32 | 46.41040 | 22.96205 | 34282 ft | 473 kts | 303° |
| 2026-04-30 09:33 | 46.44714 | 22.88281 | 34277 ft | 473 kts | 303° |
| 2026-04-30 09:33 | 46.48384 | 22.80344 | 34271 ft | 473 kts | 303° |
| 2026-04-30 09:34 | 46.52048 | 22.72399 | 34268 ft | 473 kts | 303° |
| 2026-04-30 09:34 | 46.55716 | 22.64422 | 34267 ft | 475 kts | 303° |
| 2026-04-30 09:35 | 46.59379 | 22.56432 | 34268 ft | 474 kts | 303° |
| 2026-04-30 09:35 | 46.63004 | 22.48502 | 34263 ft | 473 kts | 303° |
| 2026-04-30 09:36 | 46.66635 | 22.40534 | 34261 ft | 472 kts | 304° |
| 2026-04-30 09:36 | 46.70288 | 22.32501 | 34268 ft | 477 kts | 304° |
| 2026-04-30 09:37 | 46.73947 | 22.24427 | 34272 ft | 477 kts | 304° |
| 2026-04-30 09:37 | 46.77602 | 22.16339 | 34287 ft | 477 kts | 304° |
| 2026-04-30 09:38 | 46.81246 | 22.08251 | 34294 ft | 476 kts | 304° |
| 2026-04-30 09:38 | 46.84874 | 22.00179 | 34304 ft | 475 kts | 304° |
| 2026-04-30 09:39 | 46.88493 | 21.92097 | 34309 ft | 474 kts | 304° |
| 2026-04-30 09:39 | 46.92087 | 21.84052 | 34312 ft | 476 kts | 304° |
| 2026-04-30 09:40 | 46.95701 | 21.75938 | 34333 ft | 474 kts | 304° |
| 2026-04-30 09:40 | 46.99301 | 21.67831 | 34319 ft | 475 kts | 304° |
| 2026-04-30 09:41 | 47.02914 | 21.59672 | 34325 ft | 477 kts | 304° |
| 2026-04-30 09:41 | 47.06522 | 21.51495 | 34330 ft | 477 kts | 304° |
| 2026-04-30 09:42 | 47.10105 | 21.43356 | 34333 ft | 477 kts | 305° |
| 2026-04-30 09:42 | 47.13717 | 21.35127 | 34334 ft | 479 kts | 305° |
| 2026-04-30 09:43 | 47.17320 | 21.26890 | 34337 ft | 478 kts | 304° |
| 2026-04-30 09:43 | 47.20914 | 21.18652 | 34346 ft | 479 kts | 304° |
| 2026-04-30 09:44 | 47.24504 | 21.10395 | 34334 ft | 479 kts | 305° |
| 2026-04-30 09:44 | 47.28067 | 21.02180 | 34341 ft | 479 kts | 305° |
| 2026-04-30 09:45 | 47.31646 | 20.93899 | 34345 ft | 479 kts | 305° |
| 2026-04-30 09:45 | 47.35222 | 20.85604 | 34343 ft | 479 kts | 304° |
| 2026-04-30 09:46 | 47.38793 | 20.77293 | 34344 ft | 479 kts | 304° |
| 2026-04-30 09:46 | 47.42346 | 20.68999 | 34366 ft | 477 kts | 305° |
| 2026-04-30 09:47 | 47.45882 | 20.60719 | 34363 ft | 476 kts | 305° |
| 2026-04-30 09:47 | 47.49388 | 20.52485 | 34372 ft | 476 kts | 305° |
| 2026-04-30 09:48 | 47.52910 | 20.44188 | 34356 ft | 475 kts | 305° |
| 2026-04-30 09:48 | 47.56416 | 20.35906 | 34360 ft | 474 kts | 305° |
| 2026-04-30 09:49 | 47.59914 | 20.27616 | 34356 ft | 475 kts | 304° |
| 2026-04-30 09:49 | 47.63392 | 20.19347 | 34353 ft | 476 kts | 304° |
| 2026-04-30 09:50 | 47.66885 | 20.11018 | 34336 ft | 476 kts | 304° |
| 2026-04-30 09:50 | 47.70375 | 20.02670 | 34365 ft | 475 kts | 304° |
| 2026-04-30 09:51 | 47.73852 | 19.94330 | 34364 ft | 474 kts | 304° |
| 2026-04-30 09:51 | 47.77322 | 19.85979 | 34367 ft | 474 kts | 304° |
| 2026-04-30 09:52 | 47.80765 | 19.77669 | 34370 ft | 475 kts | 304° |
| 2026-04-30 09:52 | 47.84230 | 19.69276 | 34366 ft | 477 kts | 304° |
| 2026-04-30 09:53 | 47.87695 | 19.60860 | 34371 ft | 476 kts | 304° |
| 2026-04-30 09:53 | 47.91146 | 19.52454 | 34372 ft | 475 kts | 304° |
| 2026-04-30 09:54 | 47.94589 | 19.44036 | 34376 ft | 475 kts | 304° |
| 2026-04-30 09:54 | 47.98004 | 19.35665 | 34382 ft | 476 kts | 304° |
| 2026-04-30 09:55 | 48.01442 | 19.27210 | 34380 ft | 476 kts | 304° |
| 2026-04-30 09:55 | 48.04869 | 19.18754 | 34391 ft | 475 kts | 304° |
| 2026-04-30 09:56 | 48.08536 | 19.10582 | 34411 ft | 471 kts | 313° |
| 2026-04-30 09:56 | 48.12810 | 19.03107 | 34396 ft | 475 kts | 313° |
| 2026-04-30 09:57 | 48.17117 | 18.95575 | 34406 ft | 475 kts | 313° |
| 2026-04-30 09:57 | 48.21409 | 18.88028 | 34409 ft | 476 kts | 313° |
| 2026-04-30 09:58 | 48.25710 | 18.80454 | 34412 ft | 476 kts | 313° |
| 2026-04-30 09:58 | 48.29965 | 18.72930 | 34400 ft | 475 kts | 314° |
| 2026-04-30 09:59 | 48.38506 | 18.57780 | 34397 ft | 475 kts | 314° |
| 2026-04-30 10:00 | 48.44909 | 18.46365 | 34402 ft | 476 kts | 314° |
| 2026-04-30 10:01 | 48.51314 | 18.34894 | 34416 ft | 477 kts | 314° |
| 2026-04-30 10:02 | 48.57680 | 18.23443 | 34423 ft | 476 kts | 314° |
| 2026-04-30 10:02 | 48.61930 | 18.15776 | 34429 ft | 476 kts | 314° |
| 2026-04-30 10:03 | 48.66175 | 18.08088 | 34406 ft | 476 kts | 315° |
| 2026-04-30 10:03 | 48.70432 | 18.00366 | 34424 ft | 479 kts | 315° |
| 2026-04-30 10:04 | 48.74692 | 17.92603 | 34427 ft | 479 kts | 315° |
| 2026-04-30 10:04 | 48.78948 | 17.84834 | 34426 ft | 479 kts | 315° |
| 2026-04-30 10:05 | 48.83196 | 17.77054 | 34429 ft | 480 kts | 315° |
| 2026-04-30 10:05 | 48.87126 | 17.68794 | 34454 ft | 490 kts | 302° |
| 2026-04-30 10:06 | 48.89987 | 17.59333 | 34455 ft | 492 kts | 300° |
| 2026-04-30 10:06 | 48.92323 | 17.51458 | 34462 ft | 492 kts | 300° |
| 2026-04-30 10:07 | 48.95590 | 17.40426 | 34463 ft | 491 kts | 300° |
| 2026-04-30 10:07 | 48.97916 | 17.32528 | 34463 ft | 491 kts | 300° |
| 2026-04-30 10:08 | 49.00703 | 17.23041 | 34458 ft | 491 kts | 300° |
| 2026-04-30 10:08 | 49.03487 | 17.13528 | 34455 ft | 491 kts | 300° |
| 2026-04-30 10:09 | 49.06258 | 17.04017 | 34453 ft | 491 kts | 300° |
| 2026-04-30 10:09 | 49.09027 | 16.94476 | 34435 ft | 491 kts | 300° |
| 2026-04-30 10:10 | 49.11772 | 16.84986 | 34451 ft | 492 kts | 300° |
| 2026-04-30 10:10 | 49.14531 | 16.75400 | 34451 ft | 492 kts | 300° |
| 2026-04-30 10:11 | 49.17280 | 16.65822 | 34451 ft | 491 kts | 300° |
| 2026-04-30 10:11 | 49.20013 | 16.56248 | 34449 ft | 491 kts | 300° |
| 2026-04-30 10:12 | 49.22743 | 16.46668 | 34435 ft | 495 kts | 300° |
| 2026-04-30 10:12 | 49.25478 | 16.37005 | 34449 ft | 495 kts | 300° |
| 2026-04-30 10:13 | 49.28213 | 16.27322 | 34445 ft | 495 kts | 300° |
| 2026-04-30 10:13 | 49.30936 | 16.17628 | 34435 ft | 493 kts | 301° |
| 2026-04-30 10:14 | 49.33654 | 16.07932 | 34441 ft | 496 kts | 301° |
| 2026-04-30 10:14 | 49.37716 | 15.93339 | 34444 ft | 495 kts | 301° |
| 2026-04-30 10:15 | 49.40410 | 15.83622 | 34442 ft | 495 kts | 300° |
| 2026-04-30 10:15 | 49.43085 | 15.73926 | 34445 ft | 497 kts | 301° |
| 2026-04-30 10:16 | 49.45778 | 15.64131 | 34461 ft | 498 kts | 301° |
| 2026-04-30 10:17 | 49.49796 | 15.49430 | 34461 ft | 497 kts | 301° |
| 2026-04-30 10:17 | 49.53793 | 15.34720 | 34462 ft | 498 kts | 301° |
| 2026-04-30 10:18 | 49.56461 | 15.24850 | 34462 ft | 499 kts | 300° |
| 2026-04-30 10:19 | 49.60444 | 15.10032 | 34472 ft | 499 kts | 300° |
| 2026-04-30 10:19 | 49.63088 | 15.00141 | 34475 ft | 498 kts | 300° |
| 2026-04-30 10:20 | 49.65726 | 14.90238 | 34479 ft | 500 kts | 300° |
| 2026-04-30 10:20 | 49.69662 | 14.75366 | 34482 ft | 500 kts | 300° |
| 2026-04-30 10:21 | 49.72286 | 14.65409 | 34480 ft | 500 kts | 300° |
| 2026-04-30 10:21 | 49.74903 | 14.55432 | 34497 ft | 500 kts | 300° |
| 2026-04-30 10:22 | 49.77518 | 14.45421 | 34494 ft | 502 kts | 300° |
| 2026-04-30 10:22 | 49.80127 | 14.35381 | 34490 ft | 503 kts | 300° |
| 2026-04-30 10:23 | 49.82728 | 14.25332 | 34489 ft | 503 kts | 300° |
| 2026-04-30 10:23 | 49.85302 | 14.15342 | 34475 ft | 501 kts | 299° |
| 2026-04-30 10:24 | 49.87881 | 14.05292 | 34474 ft | 502 kts | 299° |
| 2026-04-30 10:24 | 49.90455 | 13.95214 | 34474 ft | 503 kts | 299° |
| 2026-04-30 10:25 | 49.93027 | 13.85099 | 34478 ft | 503 kts | 299° |
| 2026-04-30 10:25 | 49.95588 | 13.74984 | 34452 ft | 505 kts | 298° |
| 2026-04-30 10:26 | 49.98185 | 13.64685 | 34757 ft | 513 kts | 298° |
| 2026-04-30 10:26 | 49.99477 | 13.59520 | 35161 ft | 511 kts | 298° |
| 2026-04-30 10:26 | 50.00763 | 13.54387 | 35536 ft | 509 kts | 298° |
| 2026-04-30 10:27 | 50.02029 | 13.49333 | 35901 ft | 507 kts | 298° |
| 2026-04-30 10:27 | 50.03304 | 13.44224 | 36274 ft | 505 kts | 298° |
| 2026-04-30 10:27 | 50.04573 | 13.39122 | 36486 ft | 507 kts | 297° |
| 2026-04-30 10:27 | 50.05851 | 13.33982 | 36473 ft | 509 kts | 297° |
| 2026-04-30 10:28 | 50.08381 | 13.23736 | 36466 ft | 503 kts | 297° |
| 2026-04-30 10:28 | 50.10890 | 13.13565 | 36470 ft | 503 kts | 297° |
| 2026-04-30 10:29 | 50.13384 | 13.03381 | 36448 ft | 503 kts | 297° |
| 2026-04-30 10:29 | 50.15874 | 12.93182 | 36454 ft | 503 kts | 297° |
| 2026-04-30 10:30 | 50.18336 | 12.83041 | 36454 ft | 503 kts | 297° |
| 2026-04-30 10:30 | 50.20807 | 12.72824 | 36457 ft | 503 kts | 297° |
| 2026-04-30 10:31 | 50.23270 | 12.62587 | 36463 ft | 503 kts | 297° |
| 2026-04-30 10:31 | 50.25701 | 12.52437 | 36466 ft | 503 kts | 297° |
| 2026-04-30 10:32 | 50.28132 | 12.42255 | 36466 ft | 502 kts | 298° |
| 2026-04-30 10:32 | 50.31594 | 12.33063 | 36473 ft | 487 kts | 314° |
| 2026-04-30 10:33 | 50.35713 | 12.24638 | 36471 ft | 487 kts | 314° |
| 2026-04-30 10:33 | 50.39829 | 12.16219 | 36473 ft | 487 kts | 314° |
| 2026-04-30 10:34 | 50.43935 | 12.07768 | 36469 ft | 486 kts | 314° |
| 2026-04-30 10:34 | 50.48047 | 11.99299 | 36471 ft | 488 kts | 313° |
| 2026-04-30 10:35 | 50.52154 | 11.90794 | 36477 ft | 488 kts | 313° |
| 2026-04-30 10:35 | 50.56235 | 11.82329 | 36477 ft | 488 kts | 313° |
| 2026-04-30 10:36 | 50.60328 | 11.73804 | 36482 ft | 488 kts | 313° |
| 2026-04-30 10:36 | 50.64410 | 11.65278 | 36475 ft | 487 kts | 313° |
| 2026-04-30 10:37 | 50.68491 | 11.56723 | 36470 ft | 488 kts | 313° |
| 2026-04-30 10:37 | 50.72572 | 11.48141 | 36468 ft | 489 kts | 313° |
| 2026-04-30 10:38 | 50.76646 | 11.39548 | 36464 ft | 489 kts | 313° |
| 2026-04-30 10:38 | 50.80711 | 11.30943 | 36436 ft | 487 kts | 312° |
| 2026-04-30 10:39 | 50.84760 | 11.22347 | 36476 ft | 488 kts | 312° |
| 2026-04-30 10:39 | 50.88810 | 11.13716 | 36477 ft | 488 kts | 312° |
| 2026-04-30 10:40 | 50.92852 | 11.05075 | 36480 ft | 488 kts | 312° |
| 2026-04-30 10:40 | 50.96885 | 10.96425 | 36480 ft | 487 kts | 312° |
| 2026-04-30 10:41 | 51.00908 | 10.87767 | 36484 ft | 487 kts | 311° |
| 2026-04-30 10:41 | 51.04912 | 10.79124 | 36483 ft | 490 kts | 311° |
| 2026-04-30 10:42 | 51.08924 | 10.70430 | 36477 ft | 489 kts | 311° |
| 2026-04-30 10:42 | 51.12930 | 10.61723 | 36469 ft | 487 kts | 311° |
| 2026-04-30 10:43 | 51.16920 | 10.53022 | 36466 ft | 486 kts | 311° |
| 2026-04-30 10:43 | 51.20908 | 10.44299 | 36472 ft | 489 kts | 311° |
| 2026-04-30 10:44 | 51.24856 | 10.35410 | 36490 ft | 494 kts | 304° |
| 2026-04-30 10:44 | 51.27729 | 10.25468 | 36475 ft | 499 kts | 298° |
| 2026-04-30 10:45 | 51.30445 | 10.15359 | 36476 ft | 498 kts | 298° |
| 2026-04-30 10:45 | 51.33179 | 10.05198 | 36479 ft | 497 kts | 297° |
| 2026-04-30 10:46 | 51.35897 | 9.95019 | 36476 ft | 497 kts | 297° |
| 2026-04-30 10:46 | 51.38615 | 9.84813 | 36477 ft | 498 kts | 297° |
| 2026-04-30 10:47 | 51.41306 | 9.74653 | 36476 ft | 498 kts | 297° |
| 2026-04-30 10:47 | 51.44002 | 9.64432 | 36475 ft | 497 kts | 297° |
| 2026-04-30 10:48 | 51.46690 | 9.54200 | 36474 ft | 499 kts | 297° |
| 2026-04-30 10:48 | 51.49379 | 9.43910 | 36477 ft | 500 kts | 296° |
| 2026-04-30 10:49 | 51.52040 | 9.33687 | 36472 ft | 499 kts | 296° |
| 2026-04-30 10:49 | 51.54705 | 9.23397 | 36471 ft | 499 kts | 296° |
| 2026-04-30 10:50 | 51.57362 | 9.13094 | 36470 ft | 498 kts | 296° |
| 2026-04-30 10:50 | 51.60004 | 9.02803 | 36459 ft | 498 kts | 296° |
| 2026-04-30 10:51 | 51.62639 | 8.92492 | 36454 ft | 497 kts | 296° |
| 2026-04-30 10:51 | 51.65250 | 8.82227 | 36448 ft | 499 kts | 296° |
| 2026-04-30 10:52 | 51.67871 | 8.71879 | 36438 ft | 500 kts | 296° |
| 2026-04-30 10:52 | 51.70496 | 8.61458 | 36455 ft | 501 kts | 296° |
| 2026-04-30 10:53 | 51.73109 | 8.51045 | 36452 ft | 501 kts | 296° |
| 2026-04-30 10:53 | 51.75709 | 8.40628 | 36470 ft | 499 kts | 295° |
| 2026-04-30 10:54 | 51.78294 | 8.30227 | 36463 ft | 499 kts | 295° |
| 2026-04-30 10:54 | 51.80871 | 8.19809 | 36459 ft | 500 kts | 295° |
| 2026-04-30 10:55 | 51.83445 | 8.09352 | 36453 ft | 500 kts | 295° |
| 2026-04-30 10:55 | 51.85998 | 7.98933 | 36450 ft | 501 kts | 295° |
| 2026-04-30 10:56 | 51.88556 | 7.88444 | 36453 ft | 501 kts | 295° |
| 2026-04-30 10:56 | 51.90690 | 7.79656 | 36437 ft | 501 kts | 294° |
| 2026-04-30 10:57 | 51.93232 | 7.69135 | 36447 ft | 502 kts | 294° |
| 2026-04-30 10:57 | 51.95756 | 7.58645 | 36448 ft | 502 kts | 294° |
| 2026-04-30 10:58 | 51.98283 | 7.48084 | 36446 ft | 502 kts | 294° |
| 2026-04-30 10:58 | 52.00803 | 7.37505 | 36438 ft | 502 kts | 294° |
| 2026-04-30 10:59 | 52.03319 | 7.26893 | 36427 ft | 503 kts | 293° |
| 2026-04-30 10:59 | 52.05823 | 7.16277 | 36425 ft | 504 kts | 293° |
| 2026-04-30 11:00 | 52.08320 | 7.05642 | 36424 ft | 502 kts | 293° |
| 2026-04-30 11:00 | 52.10780 | 6.95109 | 36421 ft | 501 kts | 293° |
| 2026-04-30 11:01 | 52.13242 | 6.84519 | 36423 ft | 500 kts | 292° |
| 2026-04-30 11:01 | 52.15702 | 6.73879 | 36424 ft | 502 kts | 292° |
| 2026-04-30 11:02 | 52.18160 | 6.63197 | 36423 ft | 503 kts | 292° |
| 2026-04-30 11:02 | 52.20605 | 6.52519 | 36428 ft | 503 kts | 292° |
| 2026-04-30 11:03 | 52.23041 | 6.41824 | 36427 ft | 503 kts | 292° |
| 2026-04-30 11:04 | 52.26691 | 6.25697 | 36417 ft | 505 kts | 292° |
| 2026-04-30 11:04 | 52.29080 | 6.15076 | 36415 ft | 505 kts | 292° |
| 2026-04-30 11:05 | 52.31496 | 6.04279 | 36408 ft | 504 kts | 292° |
| 2026-04-30 11:05 | 52.33897 | 5.93496 | 36400 ft | 504 kts | 291° |
| 2026-04-30 11:06 | 52.36281 | 5.82727 | 36405 ft | 504 kts | 291° |
| 2026-04-30 11:06 | 52.38659 | 5.71937 | 36397 ft | 504 kts | 291° |
| 2026-04-30 11:07 | 52.41026 | 5.61136 | 36397 ft | 504 kts | 291° |
| 2026-04-30 11:07 | 52.43384 | 5.50320 | 36396 ft | 504 kts | 291° |
| 2026-04-30 11:08 | 52.45719 | 5.39555 | 36397 ft | 506 kts | 290° |
| 2026-04-30 11:08 | 52.48070 | 5.28657 | 36398 ft | 505 kts | 290° |
| 2026-04-30 11:09 | 52.50404 | 5.17782 | 36395 ft | 504 kts | 290° |
| 2026-04-30 11:09 | 52.52723 | 5.06919 | 36393 ft | 506 kts | 290° |
| 2026-04-30 11:10 | 52.55046 | 4.95979 | 36385 ft | 507 kts | 290° |
| 2026-04-30 11:10 | 52.57343 | 4.85096 | 36388 ft | 502 kts | 289° |
| 2026-04-30 11:11 | 52.59623 | 4.74243 | 36386 ft | 502 kts | 289° |
| 2026-04-30 11:11 | 52.61881 | 4.63434 | 36392 ft | 503 kts | 289° |
| 2026-04-30 11:12 | 52.64149 | 4.52515 | 36386 ft | 503 kts | 289° |
| 2026-04-30 11:12 | 52.66389 | 4.41677 | 36386 ft | 503 kts | 289° |
| 2026-04-30 11:13 | 52.68631 | 4.30767 | 36377 ft | 503 kts | 289° |
| 2026-04-30 11:13 | 52.70867 | 4.19826 | 36388 ft | 504 kts | 289° |
| 2026-04-30 11:14 | 52.73096 | 4.08860 | 36389 ft | 503 kts | 289° |
| 2026-04-30 11:14 | 52.75307 | 3.97925 | 36391 ft | 503 kts | 288° |
| 2026-04-30 11:15 | 52.77516 | 3.86930 | 36393 ft | 505 kts | 288° |
| 2026-04-30 11:15 | 52.79718 | 3.75913 | 36392 ft | 505 kts | 288° |
| 2026-04-30 11:16 | 52.81909 | 3.64887 | 36395 ft | 505 kts | 288° |
| 2026-04-30 11:16 | 52.84091 | 3.53845 | 36393 ft | 505 kts | 288° |
| 2026-04-30 11:17 | 52.86264 | 3.42788 | 36374 ft | 506 kts | 287° |
| 2026-04-30 11:17 | 52.88431 | 3.31695 | 36374 ft | 505 kts | 287° |
| 2026-04-30 11:18 | 52.90580 | 3.20636 | 36375 ft | 504 kts | 287° |
| 2026-04-30 11:18 | 52.93162 | 3.03853 | 36377 ft | 504 kts | 281° |
| 2026-04-30 11:19 | 52.94653 | 2.92486 | 36398 ft | 505 kts | 281° |
| 2026-04-30 11:19 | 52.96149 | 2.81078 | 36395 ft | 507 kts | 281° |
| 2026-04-30 11:20 | 52.97626 | 2.69647 | 36396 ft | 506 kts | 281° |
| 2026-04-30 11:20 | 52.99093 | 2.58262 | 36384 ft | 503 kts | 281° |
| 2026-04-30 11:21 | 53.00541 | 2.46893 | 36387 ft | 504 kts | 280° |
| 2026-04-30 11:21 | 53.01980 | 2.35519 | 36384 ft | 503 kts | 280° |
| 2026-04-30 11:22 | 53.03408 | 2.24136 | 36383 ft | 503 kts | 280° |
| 2026-04-30 11:22 | 53.04823 | 2.12759 | 36380 ft | 503 kts | 280° |
| 2026-04-30 11:23 | 53.06229 | 2.01370 | 36386 ft | 502 kts | 279° |
| 2026-04-30 11:24 | 53.08303 | 1.84369 | 36386 ft | 503 kts | 279° |
| 2026-04-30 11:24 | 53.09681 | 1.72962 | 36385 ft | 503 kts | 279° |
| 2026-04-30 11:25 | 53.11730 | 1.55810 | 36376 ft | 504 kts | 279° |
| 2026-04-30 11:26 | 53.14417 | 1.32968 | 36368 ft | 501 kts | 279° |
| 2026-04-30 11:26 | 53.15740 | 1.21578 | 36366 ft | 501 kts | 279° |
| 2026-04-30 11:27 | 53.17053 | 1.10168 | 36374 ft | 504 kts | 278° |
| 2026-04-30 11:27 | 53.17711 | 1.04412 | 36657 ft | 504 kts | 278° |
| 2026-04-30 11:27 | 53.18365 | 0.98679 | 37017 ft | 503 kts | 278° |
| 2026-04-30 11:28 | 53.19657 | 0.87239 | 37689 ft | 501 kts | 278° |
| 2026-04-30 11:28 | 53.20298 | 0.81531 | 37997 ft | 500 kts | 278° |
| 2026-04-30 11:28 | 53.20935 | 0.75837 | 38296 ft | 500 kts | 278° |
| 2026-04-30 11:29 | 53.21571 | 0.70117 | 38329 ft | 504 kts | 278° |
| 2026-04-30 11:29 | 53.23457 | 0.53011 | 38324 ft | 499 kts | 278° |
| 2026-04-30 11:30 | 53.25311 | 0.35949 | 38320 ft | 497 kts | 278° |
| 2026-04-30 11:31 | 53.26532 | 0.24583 | 38320 ft | 497 kts | 277° |
| 2026-04-30 11:31 | 53.27743 | 0.13201 | 38316 ft | 497 kts | 278° |
| 2026-04-30 11:32 | 53.28937 | 0.01873 | 38316 ft | 497 kts | 277° |
| 2026-04-30 11:32 | 53.30118 | -0.09447 | 38311 ft | 496 kts | 277° |
| 2026-04-30 11:33 | 53.31873 | -0.26471 | 38305 ft | 494 kts | 277° |
| 2026-04-30 11:33 | 53.33028 | -0.37817 | 38299 ft | 495 kts | 277° |
| 2026-04-30 11:34 | 53.34175 | -0.49195 | 38303 ft | 496 kts | 277° |
| 2026-04-30 11:34 | 53.35314 | -0.60602 | 38312 ft | 497 kts | 277° |
| 2026-04-30 11:35 | 53.36442 | -0.72016 | 38313 ft | 497 kts | 277° |
| 2026-04-30 11:35 | 53.37561 | -0.83439 | 38312 ft | 497 kts | 277° |
| 2026-04-30 11:36 | 53.38668 | -0.94864 | 38316 ft | 497 kts | 277° |
| 2026-04-30 11:36 | 53.39758 | -1.06234 | 38296 ft | 498 kts | 276° |
| 2026-04-30 11:37 | 53.40845 | -1.17688 | 38299 ft | 498 kts | 276° |
| 2026-04-30 11:37 | 53.41921 | -1.29162 | 38293 ft | 498 kts | 276° |
| 2026-04-30 11:38 | 53.42985 | -1.40642 | 38298 ft | 498 kts | 276° |
| 2026-04-30 11:38 | 53.44040 | -1.52121 | 38290 ft | 498 kts | 276° |
| 2026-04-30 11:39 | 53.45084 | -1.63636 | 38292 ft | 501 kts | 276° |
| 2026-04-30 11:39 | 53.46123 | -1.75197 | 38291 ft | 501 kts | 275° |
| 2026-04-30 11:40 | 53.47150 | -1.86776 | 38272 ft | 500 kts | 275° |
| 2026-04-30 11:40 | 53.48164 | -1.98324 | 38266 ft | 500 kts | 275° |
| 2026-04-30 11:41 | 53.49166 | -2.09879 | 38249 ft | 501 kts | 275° |
| 2026-04-30 11:41 | 53.50161 | -2.21496 | 38262 ft | 504 kts | 275° |
| 2026-04-30 11:42 | 53.51146 | -2.33109 | 38248 ft | 504 kts | 275° |
| 2026-04-30 11:42 | 53.52123 | -2.44782 | 38249 ft | 504 kts | 275° |
| 2026-04-30 11:43 | 53.53087 | -2.56446 | 38244 ft | 504 kts | 275° |
| 2026-04-30 11:43 | 53.53879 | -2.66129 | 38237 ft | 502 kts | 274° |
| 2026-04-30 11:44 | 53.54817 | -2.77728 | 38231 ft | 500 kts | 274° |
| 2026-04-30 11:44 | 53.55743 | -2.89328 | 38233 ft | 500 kts | 274° |
| 2026-04-30 11:45 | 53.56658 | -3.00941 | 38234 ft | 501 kts | 274° |
| 2026-04-30 11:45 | 53.57564 | -3.12577 | 38253 ft | 501 kts | 274° |
| 2026-04-30 11:46 | 53.58443 | -3.23995 | 38234 ft | 491 kts | 274° |
| 2026-04-30 11:46 | 53.59305 | -3.35402 | 38223 ft | 492 kts | 274° |
| 2026-04-30 11:47 | 53.60166 | -3.46876 | 38222 ft | 494 kts | 274° |
| 2026-04-30 11:47 | 53.61015 | -3.58374 | 38213 ft | 494 kts | 274° |
| 2026-04-30 11:48 | 53.61734 | -3.69900 | 38219 ft | 495 kts | 270° |
| 2026-04-30 11:48 | 53.62238 | -3.81498 | 38206 ft | 496 kts | 271° |
| 2026-04-30 11:49 | 53.62704 | -3.93099 | 38206 ft | 496 kts | 271° |
| 2026-04-30 11:49 | 53.63163 | -4.04618 | 38196 ft | 496 kts | 271° |
| 2026-04-30 11:50 | 53.63616 | -4.16209 | 38204 ft | 495 kts | 270° |
| 2026-04-30 11:50 | 53.64052 | -4.27805 | 38190 ft | 496 kts | 270° |
| 2026-04-30 11:51 | 53.64483 | -4.39411 | 38180 ft | 496 kts | 270° |
| 2026-04-30 11:51 | 53.64900 | -4.51021 | 38182 ft | 496 kts | 270° |
| 2026-04-30 11:52 | 53.65306 | -4.62642 | 38178 ft | 496 kts | 270° |
| 2026-04-30 11:52 | 53.65698 | -4.74166 | 38187 ft | 496 kts | 270° |
| 2026-04-30 11:53 | 53.66082 | -4.85795 | 38194 ft | 497 kts | 270° |
| 2026-04-30 11:53 | 53.66461 | -4.97421 | 38194 ft | 497 kts | 270° |
| 2026-04-30 11:54 | 53.66827 | -5.09061 | 38189 ft | 497 kts | 270° |
| 2026-04-30 11:54 | 53.67181 | -5.20712 | 38199 ft | 497 kts | 270° |
| 2026-04-30 11:55 | 53.67513 | -5.32371 | 38187 ft | 498 kts | 270° |
| 2026-04-30 11:55 | 53.67838 | -5.43978 | 38191 ft | 498 kts | 269° |
| 2026-04-30 11:56 | 53.68414 | -5.55616 | 38183 ft | 499 kts | 274° |
| 2026-04-30 11:56 | 53.69260 | -5.67251 | 38190 ft | 499 kts | 274° |
| 2026-04-30 11:57 | 53.70094 | -5.78877 | 38192 ft | 499 kts | 274° |
| 2026-04-30 11:57 | 53.70918 | -5.90506 | 38194 ft | 499 kts | 274° |
| 2026-04-30 11:58 | 53.71730 | -6.02152 | 38195 ft | 499 kts | 274° |
| 2026-04-30 11:58 | 53.72531 | -6.13788 | 38201 ft | 499 kts | 274° |
| 2026-04-30 11:59 | 53.73320 | -6.25439 | 38202 ft | 499 kts | 273° |
| 2026-04-30 11:59 | 53.74100 | -6.37105 | 38178 ft | 500 kts | 273° |
| 2026-04-30 12:00 | 53.74869 | -6.48789 | 38184 ft | 500 kts | 273° |
| 2026-04-30 12:00 | 53.75626 | -6.60475 | 38188 ft | 500 kts | 273° |
| 2026-04-30 12:01 | 53.76368 | -6.72098 | 38181 ft | 500 kts | 273° |
| 2026-04-30 12:01 | 53.77102 | -6.83776 | 38178 ft | 501 kts | 272° |
| 2026-04-30 12:02 | 53.77827 | -6.95511 | 38159 ft | 502 kts | 272° |
| 2026-04-30 12:02 | 53.78542 | -7.07260 | 38170 ft | 502 kts | 272° |
| 2026-04-30 12:03 | 53.79591 | -7.24868 | 38154 ft | 500 kts | 272° |
| 2026-04-30 12:04 | 53.80267 | -7.36461 | 38141 ft | 500 kts | 272° |
| 2026-04-30 12:04 | 53.80935 | -7.48113 | 38144 ft | 501 kts | 272° |
| 2026-04-30 12:05 | 53.81598 | -7.59868 | 38147 ft | 502 kts | 272° |
| 2026-04-30 12:05 | 53.82250 | -7.71657 | 38144 ft | 502 kts | 272° |
| 2026-04-30 12:06 | 53.82890 | -7.83422 | 38137 ft | 502 kts | 272° |
| 2026-04-30 12:06 | 53.83519 | -7.95207 | 38131 ft | 503 kts | 271° |
| 2026-04-30 12:07 | 53.84138 | -8.07021 | 38130 ft | 503 kts | 271° |
| 2026-04-30 12:07 | 53.84745 | -8.18832 | 38120 ft | 503 kts | 271° |
| 2026-04-30 12:08 | 53.85340 | -8.30639 | 38121 ft | 503 kts | 271° |
| 2026-04-30 12:08 | 53.85923 | -8.42443 | 38127 ft | 503 kts | 271° |
| 2026-04-30 12:09 | 53.86496 | -8.54285 | 38111 ft | 505 kts | 271° |
| 2026-04-30 12:09 | 53.87055 | -8.66080 | 38113 ft | 506 kts | 271° |
| 2026-04-30 12:10 | 53.87606 | -8.77944 | 38109 ft | 504 kts | 271° |
| 2026-04-30 12:10 | 53.88142 | -8.89769 | 38103 ft | 503 kts | 271° |
| 2026-04-30 12:11 | 53.88667 | -9.01586 | 38106 ft | 502 kts | 270° |
| 2026-04-30 12:11 | 53.89179 | -9.13381 | 38111 ft | 501 kts | 270° |
| 2026-04-30 12:12 | 53.89679 | -9.25184 | 38113 ft | 502 kts | 270° |
| 2026-04-30 12:12 | 53.90170 | -9.37008 | 38118 ft | 503 kts | 270° |
| 2026-04-30 12:13 | 53.90649 | -9.48843 | 38142 ft | 503 kts | 270° |
| 2026-04-30 12:13 | 53.91115 | -9.60675 | 38123 ft | 501 kts | 270° |
| 2026-04-30 12:14 | 53.91568 | -9.72451 | 38113 ft | 500 kts | 270° |
| 2026-04-30 12:14 | 53.92009 | -9.84233 | 38119 ft | 501 kts | 270° |
| 2026-04-30 12:15 | 53.92438 | -9.95976 | 38118 ft | 501 kts | 270° |
| 2026-04-30 12:15 | 53.92858 | -10.07817 | 38117 ft | 502 kts | 270° |
| 2026-04-30 12:16 | 53.93267 | -10.19633 | 38114 ft | 500 kts | 269° |
| 2026-04-30 12:16 | 53.93659 | -10.31346 | 38115 ft | 501 kts | 269° |
| 2026-04-30 12:17 | 53.94233 | -10.49121 | 38121 ft | 503 kts | 269° |
| 2026-04-30 12:17 | 53.94601 | -10.60989 | 38122 ft | 505 kts | 269° |
| 2026-04-30 12:18 | 53.94960 | -10.72866 | 38125 ft | 505 kts | 269° |
| 2026-04-30 12:18 | 53.95305 | -10.84748 | 38124 ft | 504 kts | 269° |
| 2026-04-30 12:19 | 53.95639 | -10.96633 | 38132 ft | 503 kts | 269° |
| 2026-04-30 12:19 | 53.95958 | -11.08441 | 38131 ft | 503 kts | 269° |
| 2026-04-30 12:20 | 53.96269 | -11.20327 | 38117 ft | 502 kts | 269° |
| 2026-04-30 12:20 | 53.96566 | -11.32144 | 38118 ft | 502 kts | 269° |
| 2026-04-30 12:21 | 53.96852 | -11.44008 | 38112 ft | 500 kts | 269° |
| 2026-04-30 12:21 | 53.97123 | -11.55746 | 38114 ft | 501 kts | 268° |
| 2026-04-30 12:22 | 53.97387 | -11.67647 | 38122 ft | 503 kts | 269° |
| 2026-04-30 12:22 | 53.97639 | -11.79487 | 38132 ft | 503 kts | 269° |
| 2026-04-30 12:23 | 53.97879 | -11.91394 | 38129 ft | 503 kts | 268° |
| 2026-04-30 12:23 | 53.98107 | -12.03258 | 38133 ft | 503 kts | 268° |
| 2026-04-30 12:24 | 53.98323 | -12.15133 | 38124 ft | 503 kts | 268° |
| 2026-04-30 12:24 | 53.98527 | -12.26997 | 38122 ft | 504 kts | 268° |
| 2026-04-30 12:25 | 53.98721 | -12.38898 | 38124 ft | 503 kts | 268° |
| 2026-04-30 12:25 | 53.98902 | -12.50749 | 38120 ft | 501 kts | 268° |
| 2026-04-30 12:26 | 53.99070 | -12.62552 | 38114 ft | 500 kts | 268° |
| 2026-04-30 12:26 | 53.99226 | -12.74361 | 38129 ft | 502 kts | 268° |
| 2026-04-30 12:27 | 53.99374 | -12.86273 | 38121 ft | 504 kts | 268° |
| 2026-04-30 12:27 | 53.99509 | -12.98253 | 38125 ft | 505 kts | 268° |
| 2026-04-30 12:28 | 53.99632 | -13.10127 | 38118 ft | 505 kts | 268° |
| 2026-04-30 12:28 | 53.99743 | -13.22107 | 38117 ft | 504 kts | 268° |
| 2026-04-30 12:29 | 53.99842 | -13.33979 | 38117 ft | 505 kts | 268° |
| 2026-04-30 12:29 | 53.99930 | -13.45906 | 38121 ft | 505 kts | 268° |
| 2026-04-30 12:30 | 54.00006 | -13.57808 | 38122 ft | 503 kts | 268° |
| 2026-04-30 12:30 | 54.00070 | -13.69678 | 38119 ft | 502 kts | 268° |
| 2026-04-30 12:31 | 54.00114 | -13.79560 | 38124 ft | 502 kts | 268° |
| 2026-04-30 12:31 | 54.00162 | -13.93402 | 38110 ft | 502 kts | 268° |
| 2026-04-30 12:32 | 54.00187 | -14.03280 | 38126 ft | 503 kts | 268° |
| 2026-04-30 12:32 | 54.00206 | -14.15085 | 38118 ft | 503 kts | 267° |
| 2026-04-30 12:33 | 54.00214 | -14.26983 | 38123 ft | 503 kts | 267° |
| 2026-04-30 12:33 | 54.00209 | -14.38875 | 38138 ft | 503 kts | 268° |
| 2026-04-30 12:34 | 54.00194 | -14.50733 | 38127 ft | 501 kts | 268° |
| 2026-04-30 12:34 | 54.00165 | -14.62550 | 38120 ft | 499 kts | 267° |
| 2026-04-30 12:35 | 54.00127 | -14.74261 | 38139 ft | 499 kts | 267° |
| 2026-04-30 12:35 | 54.00076 | -14.86073 | 38137 ft | 500 kts | 267° |
| 2026-04-30 12:36 | 54.00014 | -14.97904 | 38146 ft | 498 kts | 267° |
| 2026-04-30 12:36 | 54.00216 | -15.09670 | 38144 ft | 499 kts | 269° |
| 2026-04-30 12:37 | 54.00416 | -15.21451 | 38162 ft | 499 kts | 270° |
| 2026-04-30 12:37 | 54.00653 | -15.33255 | 38159 ft | 499 kts | 270° |
| 2026-04-30 12:38 | 54.00848 | -15.45048 | 38169 ft | 499 kts | 270° |
| 2026-04-30 12:38 | 54.01048 | -15.56727 | 38162 ft | 496 kts | 270° |
| 2026-04-30 12:39 | 54.01226 | -15.68447 | 38145 ft | 495 kts | 270° |
| 2026-04-30 12:39 | 54.01399 | -15.80175 | 38157 ft | 497 kts | 270° |
| 2026-04-30 12:40 | 54.01559 | -15.91913 | 38165 ft | 496 kts | 269° |
| 2026-04-30 12:40 | 54.01706 | -16.03662 | 38155 ft | 498 kts | 270° |
| 2026-04-30 12:41 | 54.01845 | -16.15436 | 38168 ft | 497 kts | 269° |
| 2026-04-30 12:41 | 54.01969 | -16.27216 | 38171 ft | 498 kts | 270° |
| 2026-04-30 12:42 | 54.02085 | -16.38981 | 38155 ft | 497 kts | 269° |
| 2026-04-30 12:42 | 54.02186 | -16.50759 | 38162 ft | 498 kts | 269° |
| 2026-04-30 12:43 | 54.02279 | -16.62524 | 38160 ft | 498 kts | 269° |
| 2026-04-30 12:43 | 54.02357 | -16.74317 | 38178 ft | 498 kts | 269° |
| 2026-04-30 12:44 | 54.02426 | -16.86089 | 38165 ft | 497 kts | 269° |
| 2026-04-30 12:44 | 54.02482 | -16.97872 | 38180 ft | 498 kts | 269° |
| 2026-04-30 12:45 | 54.02528 | -17.09564 | 38189 ft | 497 kts | 268° |
| 2026-04-30 12:45 | 54.02561 | -17.21322 | 38172 ft | 496 kts | 269° |
| 2026-04-30 12:46 | 54.02584 | -17.33015 | 38177 ft | 493 kts | 268° |
| 2026-04-30 12:46 | 54.02593 | -17.44687 | 38190 ft | 494 kts | 269° |
| 2026-04-30 12:47 | 54.02595 | -17.56372 | 38193 ft | 494 kts | 268° |
| 2026-04-30 12:47 | 54.02580 | -17.68101 | 38184 ft | 493 kts | 269° |
| 2026-04-30 12:48 | 54.02560 | -17.79642 | 38202 ft | 489 kts | 269° |
| 2026-04-30 12:48 | 54.02524 | -17.91198 | 38182 ft | 490 kts | 269° |
| 2026-04-30 12:49 | 54.02480 | -18.02819 | 38189 ft | 490 kts | 269° |
| 2026-04-30 12:49 | 54.02423 | -18.14421 | 38190 ft | 491 kts | 269° |
| 2026-04-30 12:50 | 54.02356 | -18.25960 | 38204 ft | 485 kts | 269° |
| 2026-04-30 12:50 | 54.02279 | -18.37395 | 38192 ft | 485 kts | 269° |
| 2026-04-30 12:51 | 54.02190 | -18.48861 | 38192 ft | 485 kts | 269° |
| 2026-04-30 12:51 | 54.02090 | -18.60354 | 38194 ft | 487 kts | 269° |
| 2026-04-30 12:52 | 54.01980 | -18.71826 | 38201 ft | 484 kts | 268° |
| 2026-04-30 12:52 | 54.01859 | -18.83227 | 38198 ft | 485 kts | 269° |
| 2026-04-30 12:53 | 54.01727 | -18.94663 | 38195 ft | 484 kts | 268° |
| 2026-04-30 12:53 | 54.01584 | -19.06155 | 38202 ft | 486 kts | 268° |
| 2026-04-30 12:54 | 54.01430 | -19.17620 | 38204 ft | 485 kts | 268° |
| 2026-04-30 12:54 | 54.01265 | -19.29108 | 38206 ft | 485 kts | 268° |
| 2026-04-30 12:55 | 54.01090 | -19.40520 | 38221 ft | 483 kts | 268° |
| 2026-04-30 12:55 | 54.00903 | -19.51941 | 38220 ft | 482 kts | 268° |
| 2026-04-30 12:56 | 54.00707 | -19.63302 | 38213 ft | 481 kts | 268° |
| 2026-04-30 12:56 | 54.00501 | -19.74654 | 38219 ft | 478 kts | 268° |
| 2026-04-30 12:57 | 54.00285 | -19.85953 | 38221 ft | 481 kts | 268° |
| 2026-04-30 12:57 | 54.00059 | -19.97193 | 38219 ft | 475 kts | 268° |
| 2026-04-30 12:58 | 53.99511 | -20.08413 | 38234 ft | 479 kts | 265° |
| 2026-04-30 12:58 | 53.98879 | -20.19666 | 38240 ft | 477 kts | 265° |
| 2026-04-30 12:59 | 53.98208 | -20.30930 | 38241 ft | 479 kts | 265° |
| 2026-04-30 12:59 | 53.97543 | -20.42159 | 38242 ft | 479 kts | 265° |
| 2026-04-30 13:00 | 53.96856 | -20.53459 | 38248 ft | 479 kts | 265° |
| 2026-04-30 13:00 | 53.96163 | -20.64720 | 38253 ft | 481 kts | 265° |
| 2026-04-30 13:01 | 53.95458 | -20.76000 | 38253 ft | 479 kts | 265° |
| 2026-04-30 13:01 | 53.94742 | -20.87292 | 38262 ft | 481 kts | 265° |
| 2026-04-30 13:02 | 53.94020 | -20.98488 | 38259 ft | 481 kts | 265° |
| 2026-04-30 13:02 | 53.93281 | -21.09791 | 38256 ft | 480 kts | 265° |
| 2026-04-30 13:03 | 53.92534 | -21.21039 | 38259 ft | 481 kts | 265° |
| 2026-04-30 13:03 | 53.91777 | -21.32303 | 38267 ft | 480 kts | 265° |
| 2026-04-30 13:04 | 53.91005 | -21.43595 | 38269 ft | 482 kts | 264° |
| 2026-04-30 13:04 | 53.90223 | -21.54903 | 38268 ft | 483 kts | 265° |
| 2026-04-30 13:05 | 53.89429 | -21.66205 | 38274 ft | 482 kts | 265° |
| 2026-04-30 13:06 | 53.88224 | -21.83073 | 38274 ft | 482 kts | 265° |
| 2026-04-30 13:06 | 53.87405 | -21.94368 | 38281 ft | 483 kts | 265° |
| 2026-04-30 13:07 | 53.86573 | -22.05663 | 38284 ft | 482 kts | 265° |
| 2026-04-30 13:07 | 53.85730 | -22.16967 | 38293 ft | 483 kts | 265° |
| 2026-04-30 13:08 | 53.84880 | -22.28238 | 38291 ft | 483 kts | 264° |
| 2026-04-30 13:08 | 53.84022 | -22.39451 | 38290 ft | 482 kts | 264° |
| 2026-04-30 13:09 | 53.83150 | -22.50708 | 38294 ft | 483 kts | 264° |
| 2026-04-30 13:09 | 53.82266 | -22.61988 | 38290 ft | 483 kts | 264° |
| 2026-04-30 13:10 | 53.81370 | -22.73268 | 38297 ft | 483 kts | 264° |
| 2026-04-30 13:10 | 53.80466 | -22.84519 | 38299 ft | 483 kts | 264° |
| 2026-04-30 13:11 | 53.79550 | -22.95775 | 38304 ft | 483 kts | 264° |
| 2026-04-30 13:11 | 53.78624 | -23.07034 | 38303 ft | 483 kts | 264° |
| 2026-04-30 13:12 | 53.77686 | -23.18297 | 38318 ft | 483 kts | 264° |
| 2026-04-30 13:12 | 53.76737 | -23.29559 | 38311 ft | 483 kts | 264° |
| 2026-04-30 13:13 | 53.75303 | -23.46339 | 38315 ft | 483 kts | 264° |
| 2026-04-30 13:14 | 53.73840 | -23.63167 | 38325 ft | 483 kts | 264° |
| 2026-04-30 13:14 | 53.72352 | -23.79999 | 38324 ft | 483 kts | 264° |
| 2026-04-30 13:15 | 53.70841 | -23.96820 | 38325 ft | 483 kts | 264° |
| 2026-04-30 13:16 | 53.69821 | -24.08017 | 38339 ft | 483 kts | 263° |
| 2026-04-30 13:16 | 53.68790 | -24.19228 | 38330 ft | 485 kts | 263° |
| 2026-04-30 13:17 | 53.67216 | -24.36090 | 38342 ft | 485 kts | 263° |
| 2026-04-30 13:18 | 53.65799 | -24.51058 | 38338 ft | 486 kts | 263° |
| 2026-04-30 13:18 | 53.64179 | -24.67924 | 38337 ft | 487 kts | 263° |
| 2026-04-30 13:19 | 53.63081 | -24.79216 | 38338 ft | 488 kts | 263° |
| 2026-04-30 13:19 | 53.61972 | -24.90495 | 38342 ft | 488 kts | 263° |
| 2026-04-30 13:20 | 53.60852 | -25.01778 | 38342 ft | 488 kts | 263° |
| 2026-04-30 13:20 | 53.59722 | -25.13044 | 38341 ft | 487 kts | 263° |
| 2026-04-30 13:21 | 53.58588 | -25.24246 | 38350 ft | 491 kts | 263° |
| 2026-04-30 13:22 | 53.56843 | -25.41249 | 38354 ft | 491 kts | 263° |
| 2026-04-30 13:22 | 53.55077 | -25.58246 | 38355 ft | 492 kts | 263° |
| 2026-04-30 13:23 | 53.53279 | -25.75276 | 38359 ft | 493 kts | 263° |
| 2026-04-30 13:24 | 53.50848 | -25.97936 | 38359 ft | 492 kts | 263° |
| 2026-04-30 13:25 | 53.48380 | -26.20513 | 38355 ft | 490 kts | 263° |
| 2026-04-30 13:26 | 53.45236 | -26.48697 | 38375 ft | 494 kts | 263° |
| 2026-04-30 13:28 | 53.42008 | -26.76998 | 38377 ft | 494 kts | 262° |
| 2026-04-30 13:28 | 53.40034 | -26.93992 | 38375 ft | 494 kts | 262° |
| 2026-04-30 13:29 | 53.37379 | -27.16511 | 38370 ft | 494 kts | 262° |
| 2026-04-30 13:31 | 53.33995 | -27.44671 | 38373 ft | 493 kts | 262° |
| 2026-04-30 13:32 | 53.30548 | -27.72752 | 38362 ft | 491 kts | 262° |
| 2026-04-30 13:33 | 53.27740 | -27.95215 | 38392 ft | 495 kts | 262° |
| 2026-04-30 13:34 | 53.25601 | -28.12087 | 38396 ft | 495 kts | 261° |
| 2026-04-30 13:35 | 53.22708 | -28.34577 | 38390 ft | 496 kts | 261° |
| 2026-04-30 13:36 | 53.19778 | -28.57000 | 38398 ft | 496 kts | 261° |
| 2026-04-30 13:36 | 53.17547 | -28.73841 | 38378 ft | 495 kts | 261° |
| 2026-04-30 13:37 | 53.15292 | -28.90672 | 38398 ft | 498 kts | 261° |
| 2026-04-30 13:38 | 53.13007 | -29.07518 | 38402 ft | 496 kts | 260° |
| 2026-04-30 13:39 | 53.09937 | -29.29869 | 38403 ft | 495 kts | 260° |
| 2026-04-30 13:40 | 53.07601 | -29.46653 | 38412 ft | 497 kts | 260° |
| 2026-04-30 13:40 | 53.06037 | -29.57782 | 38414 ft | 498 kts | 260° |
| 2026-04-30 13:41 | 53.04452 | -29.68983 | 38418 ft | 498 kts | 259° |
| 2026-04-30 13:41 | 53.02855 | -29.80181 | 38415 ft | 498 kts | 259° |
| 2026-04-30 13:42 | 53.01249 | -29.91369 | 38412 ft | 498 kts | 259° |
| 2026-04-30 13:42 | 52.99536 | -30.08259 | 38419 ft | 493 kts | 268° |
| 2026-04-30 13:43 | 52.98882 | -30.19602 | 38426 ft | 493 kts | 268° |
| 2026-04-30 13:43 | 52.98222 | -30.30949 | 38410 ft | 494 kts | 267° |
| 2026-04-30 13:44 | 52.97546 | -30.42324 | 38419 ft | 496 kts | 267° |
| 2026-04-30 13:44 | 52.96860 | -30.53710 | 38422 ft | 496 kts | 267° |
| 2026-04-30 13:45 | 52.95810 | -30.70778 | 38421 ft | 496 kts | 267° |
| 2026-04-30 13:46 | 52.95100 | -30.82095 | 38412 ft | 496 kts | 267° |
| 2026-04-30 13:46 | 52.94375 | -30.93478 | 38425 ft | 497 kts | 266° |
| 2026-04-30 13:47 | 52.93636 | -31.04904 | 38427 ft | 498 kts | 266° |
| 2026-04-30 13:47 | 52.92887 | -31.16294 | 38420 ft | 496 kts | 266° |
| 2026-04-30 13:48 | 52.92138 | -31.27544 | 38421 ft | 492 kts | 266° |
| 2026-04-30 13:48 | 52.91376 | -31.38824 | 38425 ft | 493 kts | 266° |
| 2026-04-30 13:49 | 52.90596 | -31.50182 | 38426 ft | 496 kts | 266° |
| 2026-04-30 13:49 | 52.89805 | -31.61550 | 38429 ft | 497 kts | 266° |
| 2026-04-30 13:50 | 52.89004 | -31.72917 | 38425 ft | 496 kts | 266° |
| 2026-04-30 13:50 | 52.87782 | -31.89942 | 38423 ft | 496 kts | 265° |
| 2026-04-30 13:51 | 52.86959 | -32.01207 | 38430 ft | 496 kts | 265° |
| 2026-04-30 13:51 | 52.86121 | -32.12549 | 38429 ft | 497 kts | 265° |
| 2026-04-30 13:52 | 52.85270 | -32.23894 | 38429 ft | 497 kts | 265° |
| 2026-04-30 13:52 | 52.84408 | -32.35249 | 38429 ft | 497 kts | 265° |
| 2026-04-30 13:53 | 52.83538 | -32.46560 | 38422 ft | 493 kts | 265° |
| 2026-04-30 13:53 | 52.82664 | -32.57785 | 38431 ft | 492 kts | 265° |
| 2026-04-30 13:54 | 52.81779 | -32.69011 | 38424 ft | 493 kts | 264° |
| 2026-04-30 13:54 | 52.80880 | -32.80257 | 38429 ft | 494 kts | 264° |
| 2026-04-30 13:55 | 52.79971 | -32.91508 | 38432 ft | 494 kts | 264° |
| 2026-04-30 13:55 | 52.79051 | -33.02764 | 38442 ft | 495 kts | 264° |
| 2026-04-30 13:56 | 52.78116 | -33.14054 | 38644 ft | 496 kts | 264° |
| 2026-04-30 13:56 | 52.77644 | -33.19692 | 39032 ft | 495 kts | 264° |
| 2026-04-30 13:56 | 52.77172 | -33.25315 | 39320 ft | 494 kts | 264° |
| 2026-04-30 13:57 | 52.76698 | -33.30927 | 39564 ft | 494 kts | 264° |
| 2026-04-30 13:57 | 52.76220 | -33.36551 | 39830 ft | 493 kts | 264° |
| 2026-04-30 13:57 | 52.75742 | -33.42145 | 40098 ft | 492 kts | 263° |
| 2026-04-30 13:57 | 52.75261 | -33.47741 | 40356 ft | 492 kts | 263° |
| 2026-04-30 13:58 | 52.73792 | -33.64627 | 40427 ft | 496 kts | 263° |
| 2026-04-30 13:59 | 52.72808 | -33.75783 | 40431 ft | 488 kts | 263° |
| 2026-04-30 13:59 | 52.71828 | -33.86780 | 40430 ft | 488 kts | 263° |
| 2026-04-30 14:00 | 52.70827 | -33.97880 | 40443 ft | 489 kts | 263° |
| 2026-04-30 14:00 | 52.69305 | -34.14551 | 40441 ft | 491 kts | 262° |
| 2026-04-30 14:01 | 52.68273 | -34.25697 | 40444 ft | 491 kts | 262° |
| 2026-04-30 14:01 | 52.67233 | -34.36814 | 40444 ft | 491 kts | 262° |
| 2026-04-30 14:02 | 52.66182 | -34.47926 | 40442 ft | 490 kts | 262° |
| 2026-04-30 14:02 | 52.65124 | -34.59009 | 40441 ft | 490 kts | 262° |
| 2026-04-30 14:03 | 52.64053 | -34.70108 | 40434 ft | 492 kts | 262° |
| 2026-04-30 14:03 | 52.63152 | -34.79355 | 40436 ft | 492 kts | 262° |
| 2026-04-30 14:04 | 52.61879 | -34.92299 | 40436 ft | 492 kts | 262° |
| 2026-04-30 14:04 | 52.60780 | -35.03343 | 40433 ft | 488 kts | 261° |
| 2026-04-30 14:05 | 52.59862 | -35.12500 | 40436 ft | 487 kts | 261° |
| 2026-04-30 14:05 | 52.58745 | -35.23524 | 40439 ft | 491 kts | 261° |
| 2026-04-30 14:06 | 52.57042 | -35.40144 | 40450 ft | 492 kts | 261° |
| 2026-04-30 14:07 | 52.55314 | -35.56768 | 40453 ft | 491 kts | 261° |
| 2026-04-30 14:08 | 52.53563 | -35.73378 | 40445 ft | 493 kts | 261° |
| 2026-04-30 14:08 | 52.51783 | -35.90027 | 40450 ft | 493 kts | 261° |
| 2026-04-30 14:09 | 52.50594 | -36.01023 | 40450 ft | 492 kts | 261° |
| 2026-04-30 14:10 | 52.48783 | -36.17577 | 40445 ft | 489 kts | 260° |
| 2026-04-30 14:10 | 52.47570 | -36.28538 | 40444 ft | 489 kts | 260° |
| 2026-04-30 14:11 | 52.46342 | -36.39543 | 40450 ft | 492 kts | 260° |
| 2026-04-30 14:11 | 52.45100 | -36.50572 | 40452 ft | 491 kts | 260° |
| 2026-04-30 14:12 | 52.43852 | -36.61564 | 40454 ft | 490 kts | 259° |
| 2026-04-30 14:12 | 52.42603 | -36.72457 | 40447 ft | 489 kts | 259° |
| 2026-04-30 14:13 | 52.41333 | -36.83446 | 40442 ft | 491 kts | 259° |
| 2026-04-30 14:13 | 52.40046 | -36.94489 | 40447 ft | 493 kts | 259° |
| 2026-04-30 14:14 | 52.38751 | -37.05501 | 40451 ft | 492 kts | 259° |
| 2026-04-30 14:14 | 52.37455 | -37.16432 | 40449 ft | 491 kts | 259° |
| 2026-04-30 14:15 | 52.36146 | -37.27385 | 40447 ft | 490 kts | 259° |
| 2026-04-30 14:15 | 52.34824 | -37.38352 | 40439 ft | 491 kts | 259° |
| 2026-04-30 14:16 | 52.33499 | -37.49249 | 40439 ft | 488 kts | 259° |
| 2026-04-30 14:16 | 52.32167 | -37.60123 | 40435 ft | 488 kts | 259° |
| 2026-04-30 14:17 | 52.30824 | -37.70991 | 40439 ft | 488 kts | 258° |
| 2026-04-30 14:17 | 52.29469 | -37.81874 | 40439 ft | 488 kts | 258° |
| 2026-04-30 14:18 | 52.28104 | -37.92747 | 40440 ft | 489 kts | 258° |
| 2026-04-30 14:18 | 52.26036 | -38.09060 | 40445 ft | 489 kts | 258° |
| 2026-04-30 14:19 | 52.23945 | -38.25364 | 40450 ft | 490 kts | 258° |
| 2026-04-30 14:20 | 52.22543 | -38.36187 | 40449 ft | 492 kts | 258° |
| 2026-04-30 14:20 | 52.20400 | -38.52578 | 40447 ft | 492 kts | 258° |
| 2026-04-30 14:21 | 52.18960 | -38.63487 | 40447 ft | 492 kts | 258° |
| 2026-04-30 14:22 | 52.16780 | -38.79841 | 40452 ft | 492 kts | 258° |
| 2026-04-30 14:22 | 52.14583 | -38.96138 | 40451 ft | 493 kts | 257° |
| 2026-04-30 14:23 | 52.11606 | -39.17936 | 40452 ft | 492 kts | 257° |
| 2026-04-30 14:24 | 52.09354 | -39.34213 | 40449 ft | 491 kts | 257° |
| 2026-04-30 14:25 | 52.06313 | -39.55920 | 40451 ft | 495 kts | 257° |
| 2026-04-30 14:26 | 52.03983 | -39.72339 | 40453 ft | 494 kts | 257° |
| 2026-04-30 14:27 | 52.01668 | -39.88477 | 40442 ft | 490 kts | 257° |
| 2026-04-30 14:27 | 52.00121 | -39.99279 | 40445 ft | 492 kts | 260° |
| 2026-04-30 14:28 | 51.99110 | -40.15840 | 40446 ft | 492 kts | 265° |
| 2026-04-30 14:28 | 51.98465 | -40.26892 | 40454 ft | 492 kts | 264° |
| 2026-04-30 14:29 | 51.97271 | -40.47151 | 40453 ft | 494 kts | 264° |
| 2026-04-30 14:31 | 51.95463 | -40.76686 | 40451 ft | 490 kts | 264° |
| 2026-04-30 14:31 | 51.94425 | -40.93109 | 40445 ft | 488 kts | 264° |
| 2026-04-30 14:32 | 51.93360 | -41.09590 | 40445 ft | 492 kts | 264° |
| 2026-04-30 14:33 | 51.92637 | -41.20560 | 40450 ft | 493 kts | 264° |
| 2026-04-30 14:33 | 51.91528 | -41.37121 | 40453 ft | 493 kts | 263° |
| 2026-04-30 14:34 | 51.90775 | -41.48156 | 40445 ft | 493 kts | 263° |
| 2026-04-30 14:34 | 51.90013 | -41.59180 | 40444 ft | 492 kts | 263° |
| 2026-04-30 14:35 | 51.88855 | -41.75630 | 40441 ft | 488 kts | 263° |
| 2026-04-30 14:36 | 51.88073 | -41.86562 | 40440 ft | 489 kts | 263° |
| 2026-04-30 14:36 | 51.87279 | -41.97507 | 40441 ft | 490 kts | 263° |
| 2026-04-30 14:37 | 51.86474 | -42.08475 | 40442 ft | 491 kts | 263° |
| 2026-04-30 14:37 | 51.85657 | -42.19451 | 40443 ft | 493 kts | 263° |
| 2026-04-30 14:38 | 51.84832 | -42.30395 | 40450 ft | 493 kts | 263° |
| 2026-04-30 14:38 | 51.83992 | -42.41408 | 40449 ft | 492 kts | 262° |
| 2026-04-30 14:39 | 51.83145 | -42.52359 | 40447 ft | 488 kts | 262° |
| 2026-04-30 14:39 | 51.82294 | -42.63238 | 40445 ft | 487 kts | 262° |
| 2026-04-30 14:40 | 51.81002 | -42.79500 | 40449 ft | 490 kts | 262° |
| 2026-04-30 14:40 | 51.80121 | -42.90433 | 40450 ft | 491 kts | 262° |
| 2026-04-30 14:41 | 51.79228 | -43.01375 | 40449 ft | 490 kts | 262° |
| 2026-04-30 14:41 | 51.78328 | -43.12276 | 40451 ft | 489 kts | 262° |
| 2026-04-30 14:42 | 51.77419 | -43.23165 | 40445 ft | 489 kts | 262° |
| 2026-04-30 14:42 | 51.76502 | -43.34029 | 40452 ft | 487 kts | 261° |
| 2026-04-30 14:43 | 51.75579 | -43.44827 | 40447 ft | 485 kts | 261° |
| 2026-04-30 14:43 | 51.74647 | -43.55625 | 40447 ft | 486 kts | 261° |
| 2026-04-30 14:44 | 51.73702 | -43.66442 | 40447 ft | 487 kts | 261° |
| 2026-04-30 14:44 | 51.72746 | -43.77276 | 40450 ft | 488 kts | 261° |
| 2026-04-30 14:45 | 51.71786 | -43.88039 | 40451 ft | 489 kts | 261° |
| 2026-04-30 14:45 | 51.70805 | -43.98914 | 40455 ft | 490 kts | 261° |
| 2026-04-30 14:46 | 51.69813 | -44.09799 | 40452 ft | 489 kts | 261° |
| 2026-04-30 14:46 | 51.68985 | -44.18804 | 40453 ft | 488 kts | 260° |
| 2026-04-30 14:47 | 51.67816 | -44.31364 | 40446 ft | 483 kts | 260° |
| 2026-04-30 14:47 | 51.66810 | -44.42070 | 40445 ft | 484 kts | 260° |
| 2026-04-30 14:48 | 51.65796 | -44.52745 | 40443 ft | 486 kts | 260° |
| 2026-04-30 14:48 | 51.64763 | -44.63517 | 40446 ft | 487 kts | 260° |
| 2026-04-30 14:49 | 51.63719 | -44.74291 | 40450 ft | 487 kts | 259° |
| 2026-04-30 14:49 | 51.62664 | -44.85071 | 40452 ft | 487 kts | 259° |
| 2026-04-30 14:50 | 51.61065 | -45.01217 | 40449 ft | 488 kts | 259° |
| 2026-04-30 14:51 | 51.59450 | -45.17297 | 40445 ft | 482 kts | 259° |
| 2026-04-30 14:52 | 51.57822 | -45.33266 | 40440 ft | 483 kts | 259° |
| 2026-04-30 14:52 | 51.56170 | -45.49251 | 40441 ft | 483 kts | 259° |
| 2026-04-30 14:53 | 51.54684 | -45.63444 | 40443 ft | 485 kts | 259° |
| 2026-04-30 14:54 | 51.52408 | -45.84858 | 40452 ft | 487 kts | 258° |
| 2026-04-30 14:55 | 51.50688 | -46.00794 | 40449 ft | 478 kts | 258° |
| 2026-04-30 14:56 | 51.48388 | -46.21766 | 40442 ft | 480 kts | 258° |
| 2026-04-30 14:57 | 51.46619 | -46.37660 | 40449 ft | 482 kts | 258° |
| 2026-04-30 14:58 | 51.44235 | -46.58759 | 40448 ft | 481 kts | 258° |
| 2026-04-30 14:58 | 51.42424 | -46.74556 | 40452 ft | 481 kts | 258° |
| 2026-04-30 15:00 | 51.39382 | -47.00651 | 40442 ft | 477 kts | 257° |
| 2026-04-30 15:01 | 51.36903 | -47.21531 | 40437 ft | 478 kts | 257° |
| 2026-04-30 15:01 | 51.35015 | -47.37213 | 40444 ft | 479 kts | 257° |
| 2026-04-30 15:02 | 51.33742 | -47.47688 | 40448 ft | 481 kts | 257° |
| 2026-04-30 15:03 | 51.30515 | -47.73874 | 40439 ft | 478 kts | 257° |
| 2026-04-30 15:04 | 51.27248 | -47.99868 | 40437 ft | 481 kts | 257° |
| 2026-04-30 15:06 | 51.23898 | -48.26029 | 40441 ft | 480 kts | 256° |
| 2026-04-30 15:07 | 51.21190 | -48.46828 | 40430 ft | 476 kts | 256° |
| 2026-04-30 15:08 | 51.18460 | -48.67482 | 40426 ft | 476 kts | 256° |
| 2026-04-30 15:09 | 51.14997 | -48.93269 | 40424 ft | 476 kts | 256° |
| 2026-04-30 15:10 | 51.12184 | -49.13882 | 40425 ft | 476 kts | 256° |
| 2026-04-30 15:11 | 51.07910 | -49.44657 | 40425 ft | 474 kts | 256° |
| 2026-04-30 15:13 | 51.04288 | -49.70250 | 40428 ft | 476 kts | 255° |
| 2026-04-30 15:14 | 50.98585 | -50.05891 | 40416 ft | 474 kts | 248° |
| 2026-04-30 15:17 | 50.88042 | -50.49497 | 40417 ft | 472 kts | 248° |
| 2026-04-30 15:19 | 50.78509 | -50.88178 | 40412 ft | 473 kts | 247° |
| 2026-04-30 17:39 | 41.09288 | -72.15611 | 26673 ft | 363 kts | 243° |
| 2026-04-30 17:41 | 41.03636 | -72.37434 | 20592 ft | 298 kts | 249° |
| 2026-04-30 17:42 | 41.02357 | -72.42562 | 19309 ft | 289 kts | 249° |
| 2026-04-30 17:42 | 41.00499 | -72.49989 | 17120 ft | 280 kts | 249° |
| 2026-04-30 17:43 | 40.99282 | -72.54841 | 15793 ft | 275 kts | 250° |
| 2026-04-30 17:44 | 40.97507 | -72.61896 | 14599 ft | 273 kts | 250° |
| 2026-04-30 17:44 | 40.95735 | -72.68928 | 13453 ft | 266 kts | 250° |
| 2026-04-30 17:46 | 40.92472 | -72.80096 | 11992 ft | 261 kts | 230° |
| 2026-04-30 17:47 | 40.86645 | -72.85952 | 12000 ft | 264 kts | 219° |
| 2026-04-30 17:48 | 40.84015 | -72.94252 | 10295 ft | 266 kts | 266° |
| 2026-04-30 17:48 | 40.84049 | -73.01534 | 8717 ft | 263 kts | 267° |
| 2026-04-30 17:49 | 40.84014 | -73.10722 | 7801 ft | 241 kts | 267° |
| 2026-04-30 17:50 | 40.83915 | -73.19535 | 6968 ft | 239 kts | 267° |
| 2026-04-30 17:51 | 40.83803 | -73.26022 | 6347 ft | 228 kts | 267° |
| 2026-04-30 17:52 | 40.83653 | -73.32260 | 5703 ft | 227 kts | 267° |
| 2026-04-30 17:53 | 40.83285 | -73.42598 | 4419 ft | 224 kts | 267° |
| 2026-04-30 17:54 | 40.82959 | -73.50709 | 3381 ft | 220 kts | 267° |
| 2026-04-30 17:55 | 40.81377 | -73.58361 | 3037 ft | 216 kts | 247° |
| 2026-04-30 17:56 | 40.78012 | -73.64883 | 3015 ft | 224 kts | 214° |
| 2026-04-30 17:57 | 40.74248 | -73.67843 | 2271 ft | 183 kts | 213° |
| 2026-04-30 17:58 | 40.71468 | -73.70034 | 1629 ft | 141 kts | 214° |
| 2026-04-30 17:59 | 40.68084 | -73.72692 | 891 ft | 141 kts | 214° |
| 2026-04-30 18:00 | 40.64864 | -73.75233 | 171 ft | 135 kts | 209° |
| 2026-04-30 18:00 | 40.63263 | -73.76569 | 27 ft | 34 kts | 240° |
| 2026-04-30 18:01 | 40.63331 | -73.76924 | 27 ft | 20 kts | 300° |
| 2026-04-30 18:02 | 40.63528 | -73.77359 | 28 ft | 21 kts | 301° |
| 2026-04-30 18:02 | 40.63733 | -73.77657 | 29 ft | 10 kts | 359° |
| 2026-04-30 18:03 | 40.63902 | -73.77803 | 28 ft | 12 kts | 326° |
| 2026-04-30 18:04 | 40.64071 | -73.77990 | 29 ft | 10 kts | 327° |
| 2026-04-30 18:05 | 40.64129 | -73.78150 | 29 ft | 2 kts | 241° |
| 2026-04-30 18:06 | 40.64125 | -73.78159 | 29 ft | 0 kts | 241° |